createdAt,value
2023-03-05T00:00:51.073Z,7.88
2023-03-05T00:02:56.045Z,8.27
2023-03-05T00:04:59.513Z,8.02
2023-03-05T00:07:02.995Z,8.02
2023-03-05T00:09:06.976Z,8.15
2023-03-05T00:11:13.355Z,8.00
2023-03-05T00:13:16.898Z,7.80
2023-03-05T00:15:20.514Z,8.50
2023-03-05T00:17:29.260Z,9.13
2023-03-05T00:19:36.394Z,9.32
2023-03-05T00:21:41.167Z,9.00
2023-03-05T00:23:44.572Z,8.65
2023-03-05T00:25:48.169Z,8.77
2023-03-05T00:27:51.732Z,8.70
2023-03-05T00:29:55.841Z,9.15
2023-03-05T00:31:59.470Z,10.23
2023-03-05T00:34:05.008Z,8.48
2023-03-05T00:36:11.344Z,10.10
2023-03-05T00:38:15.740Z,10.00
2023-03-05T00:40:20.275Z,10.40
2023-03-05T00:42:24.078Z,9.93
2023-03-05T00:44:27.575Z,10.30
2023-03-05T00:46:31.098Z,9.65
2023-03-05T00:48:34.947Z,9.98
2023-03-05T00:50:38.341Z,11.43
2023-03-05T00:52:43.110Z,11.20
2023-03-05T00:54:46.692Z,11.82
2023-03-05T00:56:50.222Z,11.00
2023-03-05T00:58:54.672Z,11.45
2023-03-05T01:01:00.282Z,11.88
2023-03-05T01:03:03.832Z,12.18
2023-03-05T01:05:08.172Z,11.57
2023-03-05T01:07:11.718Z,12.00
2023-03-05T01:09:16.871Z,10.88
2023-03-05T01:11:20.543Z,10.43
2023-03-05T01:13:24.079Z,12.40
2023-03-05T01:15:27.502Z,11.20
2023-03-05T01:17:30.847Z,11.13
2023-03-05T01:19:34.740Z,13.85
2023-03-05T01:21:38.577Z,13.23
2023-03-05T01:23:41.868Z,11.05
2023-03-05T01:25:46.698Z,11.43
2023-03-05T01:27:50.039Z,12.45
2023-03-05T01:29:53.459Z,12.55
2023-03-05T01:31:56.927Z,11.90
2023-03-05T01:34:01.308Z,12.43
2023-03-05T01:36:08.402Z,12.60
2023-03-05T01:38:11.835Z,12.18
2023-03-05T01:40:18.880Z,12.77
2023-03-05T01:42:23.935Z,12.60
2023-03-05T01:44:30.107Z,12.43
2023-03-05T01:46:38.189Z,14.10
2023-03-05T01:48:43.956Z,12.85
2023-03-05T01:50:47.332Z,13.80
2023-03-05T01:52:56.427Z,14.20
2023-03-05T01:55:03.328Z,10.73
2023-03-05T01:57:11.340Z,13.85
2023-03-05T01:59:17.372Z,13.95
2023-03-05T02:01:20.919Z,13.50
2023-03-05T02:03:25.342Z,13.75
2023-03-05T02:05:32.834Z,13.65
2023-03-05T02:07:38.208Z,12.98
2023-03-05T02:09:42.456Z,15.23
2023-03-05T02:11:46.342Z,13.45
2023-03-05T02:13:53.944Z,12.30
2023-03-05T02:16:01.516Z,15.27
2023-03-05T02:18:05.030Z,14.30
2023-03-05T02:20:17.432Z,13.63
2023-03-05T02:22:25.203Z,14.02
2023-03-05T02:24:37.111Z,14.30
2023-03-05T02:26:40.798Z,15.65
2023-03-05T02:28:48.386Z,15.07
2023-03-05T02:30:51.911Z,13.50
2023-03-05T02:32:55.577Z,14.95
2023-03-05T02:34:59.074Z,14.70
2023-03-05T02:37:04.571Z,14.05
2023-03-05T02:39:10.268Z,14.13
2023-03-05T02:41:14.595Z,14.73
2023-03-05T02:43:18.191Z,15.63
2023-03-05T02:45:21.768Z,13.95
2023-03-05T02:47:25.260Z,14.70
2023-03-05T02:49:29.132Z,14.13
2023-03-05T02:51:32.705Z,12.98
2023-03-05T02:53:36.457Z,14.63
2023-03-05T02:55:41.184Z,14.95
2023-03-05T02:57:45.018Z,13.63
2023-03-05T02:59:49.141Z,15.27
2023-03-05T03:01:52.428Z,14.68
2023-03-05T03:03:56.187Z,13.52
2023-03-05T03:05:59.477Z,14.63
2023-03-05T03:08:02.914Z,14.23
2023-03-05T03:10:07.388Z,13.57
2023-03-05T03:12:13.379Z,13.55
2023-03-05T03:14:16.944Z,12.45
2023-03-05T03:16:20.273Z,13.38
2023-03-05T03:18:24.439Z,15.18
2023-03-05T03:20:27.864Z,13.88
2023-03-05T03:22:31.440Z,14.10
2023-03-05T03:24:36.283Z,15.77
2023-03-05T03:26:39.595Z,13.95
2023-03-05T03:28:44.402Z,12.80
2023-03-05T03:30:47.940Z,13.95
2023-03-05T03:32:52.604Z,13.75
2023-03-05T03:34:55.986Z,13.68
2023-03-05T03:36:59.309Z,14.02
2023-03-05T03:39:04.410Z,14.05
2023-03-05T03:41:08.950Z,13.20
2023-03-05T03:43:12.444Z,12.43
2023-03-05T03:45:17.668Z,13.07
2023-03-05T03:47:21.052Z,13.77
2023-03-05T03:49:26.730Z,13.63
2023-03-05T03:51:30.395Z,13.40
2023-03-05T03:53:33.814Z,10.98
2023-03-05T03:55:37.490Z,12.80
2023-03-05T03:57:40.924Z,13.85
2023-03-05T03:59:46.238Z,12.57
2023-03-05T04:01:51.246Z,13.63
2023-03-05T04:03:55.104Z,12.90
2023-03-05T04:05:58.597Z,14.18
2023-03-05T04:08:03.328Z,14.43
2023-03-05T04:10:07.665Z,12.13
2023-03-05T04:12:11.691Z,13.55
2023-03-05T04:14:15.196Z,11.88
2023-03-05T04:16:19.496Z,12.57
2023-03-05T04:18:24.470Z,12.05
2023-03-05T04:20:28.021Z,14.75
2023-03-05T04:22:31.550Z,12.00
2023-03-05T04:24:34.915Z,12.13
2023-03-05T04:26:38.514Z,12.68
2023-03-05T04:28:41.909Z,13.15
2023-03-05T04:30:45.393Z,12.32
2023-03-05T04:32:48.991Z,12.70
2023-03-05T04:34:53.773Z,11.65
2023-03-05T04:36:57.208Z,12.55
2023-03-05T04:39:01.035Z,11.98
2023-03-05T04:41:04.399Z,13.18
2023-03-05T04:43:08.408Z,11.50
2023-03-05T04:45:12.621Z,10.60
2023-03-05T04:47:16.318Z,12.82
2023-03-05T04:49:19.542Z,13.48
2023-03-05T04:51:24.675Z,11.65
2023-03-05T04:53:28.044Z,11.73
2023-03-05T04:55:31.523Z,11.65
2023-03-05T04:57:34.919Z,10.68
2023-03-05T04:59:39.168Z,12.73
2023-03-05T05:01:43.125Z,11.68
2023-03-05T05:03:46.588Z,12.27
2023-03-05T05:05:56.583Z,12.38
2023-03-05T05:08:01.254Z,11.50
2023-03-05T05:10:04.984Z,11.43
2023-03-05T05:12:10.530Z,12.25
2023-03-05T05:14:14.246Z,10.10
2023-03-05T05:16:17.932Z,12.13
2023-03-05T05:18:22.082Z,12.48
2023-03-05T05:20:25.615Z,11.07
2023-03-05T05:22:29.979Z,10.98
2023-03-05T05:24:34.690Z,10.15
2023-03-05T05:26:38.019Z,13.15
2023-03-05T05:28:42.978Z,11.57
2023-03-05T05:30:46.500Z,11.75
2023-03-05T05:32:49.792Z,11.40
2023-03-05T05:34:56.558Z,12.30
2023-03-05T05:37:00.098Z,11.57
2023-03-05T05:39:03.709Z,13.48
2023-03-05T05:41:11.757Z,11.18
2023-03-05T05:43:15.159Z,12.45
2023-03-05T05:45:18.720Z,12.98
2023-03-05T05:47:23.300Z,15.55
2023-03-05T05:49:26.771Z,12.88
2023-03-05T05:51:30.056Z,12.73
2023-03-05T05:53:33.778Z,12.32
2023-03-05T05:55:37.272Z,13.73
2023-03-05T05:57:41.940Z,14.32
2023-03-05T05:59:45.818Z,14.40
2023-03-05T06:01:49.284Z,16.17
2023-03-05T06:03:52.708Z,15.38
2023-03-05T06:05:56.423Z,15.43
2023-03-05T06:07:59.642Z,17.08
2023-03-05T06:10:03.576Z,15.30
2023-03-05T06:12:09.206Z,16.33
2023-03-05T06:14:15.050Z,15.77
2023-03-05T06:16:20.989Z,15.88
2023-03-05T06:18:24.398Z,14.43
2023-03-05T06:20:28.576Z,15.55
2023-03-05T06:22:32.101Z,15.95
2023-03-05T06:24:35.864Z,16.73
2023-03-05T06:26:39.163Z,15.43
2023-03-05T06:28:43.008Z,15.43
2023-03-05T06:30:48.150Z,17.13
2023-03-05T06:32:51.525Z,13.45
2023-03-05T06:34:55.433Z,14.15
2023-03-05T06:36:59.034Z,14.15
2023-03-05T06:39:03.747Z,15.40
2023-03-05T06:41:11.626Z,13.52
2023-03-05T06:43:15.237Z,13.10
2023-03-05T06:45:18.698Z,16.17
2023-03-05T06:47:23.675Z,14.93
2023-03-05T06:49:26.965Z,16.00
2023-03-05T06:51:32.622Z,14.82
2023-03-05T06:53:38.086Z,15.13
2023-03-05T06:55:41.435Z,14.07
2023-03-05T06:57:45.028Z,14.80
2023-03-05T06:59:48.388Z,14.45
2023-03-05T07:01:52.233Z,13.70
2023-03-05T07:03:59.712Z,12.77
2023-03-05T07:06:05.665Z,14.25
2023-03-05T07:08:09.777Z,13.82
2023-03-05T07:10:13.576Z,14.05
2023-03-05T07:12:17.173Z,12.27
2023-03-05T07:14:20.619Z,12.30
2023-03-05T07:16:25.754Z,12.45
2023-03-05T07:18:29.093Z,12.05
2023-03-05T07:20:36.027Z,12.02
2023-03-05T07:22:39.619Z,12.80
2023-03-05T07:24:43.060Z,13.80
2023-03-05T07:26:52.285Z,12.48
2023-03-05T07:28:56.517Z,15.67
2023-03-05T07:31:01.297Z,13.50
2023-03-05T07:33:07.700Z,13.33
2023-03-05T07:35:11.591Z,12.50
2023-03-05T07:37:19.242Z,12.80
2023-03-05T07:39:22.619Z,13.10
2023-03-05T07:41:26.980Z,14.43
2023-03-05T07:43:30.363Z,13.50
2023-03-05T07:45:36.075Z,13.17
2023-03-05T07:47:39.375Z,13.40
2023-03-05T07:49:43.681Z,14.27
2023-03-05T07:51:47.208Z,13.20
2023-03-05T07:53:56.154Z,13.70
2023-03-05T07:55:59.508Z,13.53
2023-03-05T07:58:03.500Z,13.77
2023-03-05T08:00:11.004Z,14.57
2023-03-05T08:02:19.698Z,14.00
2023-03-05T08:04:23.149Z,14.20
2023-03-05T08:06:27.267Z,12.37
2023-03-05T08:08:33.124Z,14.97
2023-03-05T08:10:39.516Z,14.30
2023-03-05T08:12:42.866Z,14.83
2023-03-05T08:14:47.695Z,14.90
2023-03-05T08:16:52.316Z,16.93
2023-03-05T08:18:57.453Z,15.00
2023-03-05T08:21:01.002Z,15.10
2023-03-05T08:23:06.401Z,15.83
2023-03-05T08:25:10.322Z,15.90
2023-03-05T08:27:15.356Z,14.57
2023-03-05T08:29:18.868Z,14.83
2023-03-05T08:31:28.207Z,16.40
2023-03-05T08:33:33.849Z,15.53
2023-03-05T08:35:38.794Z,15.20
2023-03-05T08:37:42.287Z,15.97
2023-03-05T08:39:46.052Z,15.70
2023-03-05T08:41:52.378Z,15.50
2023-03-05T08:43:57.370Z,15.43
2023-03-05T08:46:02.291Z,14.23
2023-03-05T08:48:08.431Z,15.83
2023-03-05T08:50:13.542Z,15.40
2023-03-05T08:52:19.682Z,14.43
2023-03-05T08:54:23.014Z,16.20
2023-03-05T08:56:31.388Z,15.70
2023-03-05T08:58:40.885Z,15.70
2023-03-05T09:00:48.061Z,16.23
2023-03-05T09:02:51.683Z,14.80
2023-03-05T09:04:57.344Z,16.20
2023-03-05T09:07:06.066Z,16.10
2023-03-05T09:09:16.241Z,15.10
2023-03-05T09:11:20.073Z,13.53
2023-03-05T09:13:23.918Z,14.13
2023-03-05T09:15:27.539Z,13.93
2023-03-05T09:17:32.547Z,14.37
2023-03-05T09:19:38.964Z,16.20
2023-03-05T09:21:43.125Z,17.43
2023-03-05T09:23:48.812Z,15.73
2023-03-05T09:25:52.471Z,15.70
2023-03-05T09:27:56.079Z,15.00
2023-03-05T09:29:59.577Z,15.00
2023-03-05T09:32:03.293Z,13.67
2023-03-05T09:34:09.343Z,14.40
2023-03-05T09:36:22.465Z,14.53
2023-03-05T09:38:26.261Z,14.73
2023-03-05T09:40:38.963Z,16.57
2023-03-05T09:43:04.890Z,15.77
2023-03-05T09:45:21.792Z,14.87
2023-03-05T09:47:48.325Z,16.33
2023-03-05T09:50:01.161Z,15.93
2023-03-05T09:52:15.899Z,14.67
2023-03-05T09:54:26.668Z,15.33
2023-03-05T09:56:35.186Z,14.90
2023-03-05T09:58:45.785Z,14.07
2023-03-05T10:00:51.276Z,15.57
2023-03-05T10:03:03.564Z,15.20
2023-03-05T10:05:19.160Z,15.77
2023-03-05T10:07:27.290Z,14.37
2023-03-05T10:09:47.566Z,14.57
2023-03-05T10:11:56.478Z,15.47
2023-03-05T10:14:00.073Z,15.13
2023-03-05T10:16:12.225Z,14.70
2023-03-05T10:18:25.006Z,14.80
2023-03-05T10:20:42.345Z,15.43
2023-03-05T10:23:02.793Z,15.77
2023-03-05T10:25:21.744Z,14.50
2023-03-05T10:27:41.552Z,15.57
2023-03-05T10:29:58.635Z,14.60
2023-03-05T10:32:14.654Z,15.93
2023-03-05T10:34:54.597Z,14.60
2023-03-05T10:37:25.197Z,14.30
2023-03-05T10:40:06.484Z,12.93
2023-03-05T10:42:18.162Z,13.50
2023-03-05T10:44:28.353Z,13.10
2023-03-05T10:46:36.246Z,15.10
2023-03-05T10:48:44.695Z,13.57
2023-03-05T10:50:51.838Z,13.13
2023-03-05T10:53:08.001Z,15.10
2023-03-05T10:55:16.922Z,15.00
2023-03-05T10:57:22.880Z,14.53
2023-03-05T10:59:26.364Z,14.10
2023-03-05T11:01:32.106Z,14.43
2023-03-05T11:03:50.349Z,12.40
2023-03-05T11:06:01.276Z,13.97
2023-03-05T11:08:29.842Z,13.57
2023-03-05T11:10:36.909Z,15.17
2023-03-05T11:12:40.671Z,14.83
2023-03-05T11:14:46.029Z,14.30
2023-03-05T11:16:53.708Z,14.17
2023-03-05T11:19:24.562Z,11.70
2023-03-05T11:21:33.397Z,14.57
2023-03-05T11:23:38.523Z,12.90
2023-03-05T11:26:01.033Z,14.40
2023-03-05T11:28:05.806Z,13.10
2023-03-05T11:31:46.690Z,15.07
2023-03-05T11:33:29.242Z,11.37
2023-03-05T11:35:36.086Z,14.43
2023-03-05T11:37:39.613Z,13.10
2023-03-05T11:39:46.280Z,13.47
2023-03-05T11:41:52.516Z,14.00
2023-03-05T11:43:56.979Z,14.30
2023-03-05T11:46:05.252Z,14.40
2023-03-05T11:48:15.013Z,14.50
2023-03-05T11:50:23.749Z,13.33
2023-03-05T11:52:33.570Z,14.60
2023-03-05T11:54:49.076Z,12.23
2023-03-05T11:56:54.738Z,14.07
2023-03-05T11:59:03.302Z,13.13
2023-03-05T12:01:18.095Z,14.70
2023-03-05T12:03:30.609Z,13.97
2023-03-05T12:05:35.914Z,12.60
2023-03-05T12:07:43.320Z,13.90
2023-03-05T12:09:49.563Z,13.50
2023-03-05T12:12:00.014Z,13.50
2023-03-05T12:14:08.062Z,12.40
2023-03-05T12:16:18.519Z,13.40
2023-03-05T12:18:39.906Z,12.97
2023-03-05T12:20:50.732Z,12.47
2023-03-05T12:22:54.787Z,12.93
2023-03-05T12:25:25.812Z,12.80
2023-03-05T12:27:39.558Z,13.77
2023-03-05T12:29:51.339Z,13.90
2023-03-05T12:31:55.152Z,14.33
2023-03-05T12:33:58.553Z,14.17
2023-03-05T12:36:41.705Z,15.53
2023-03-05T12:38:46.435Z,14.53
2023-03-05T12:40:49.887Z,12.87
2023-03-05T12:43:02.995Z,15.93
2023-03-05T12:45:41.003Z,13.70
2023-03-05T12:47:48.100Z,13.73
2023-03-05T12:49:51.884Z,13.27
2023-03-05T12:51:56.740Z,13.27
2023-03-05T12:54:24.496Z,14.37
2023-03-05T12:56:32.877Z,13.27
2023-03-05T12:58:42.313Z,13.93
2023-03-05T13:00:50.180Z,13.40
2023-03-05T13:02:58.917Z,15.00
2023-03-05T13:05:06.140Z,13.17
2023-03-05T13:07:17.373Z,14.13
2023-03-05T13:09:27.649Z,13.47
2023-03-05T13:11:34.549Z,14.27
2023-03-05T13:13:44.610Z,15.17
2023-03-05T13:15:49.703Z,15.37
2023-03-05T13:17:56.800Z,13.70
2023-03-05T13:20:01.581Z,13.40
2023-03-05T13:22:12.168Z,13.67
2023-03-05T13:24:19.668Z,13.23
2023-03-05T13:26:23.142Z,12.70
2023-03-05T13:28:27.037Z,13.17
2023-03-05T13:30:34.323Z,13.60
2023-03-05T13:32:38.338Z,14.23
2023-03-05T13:34:49.751Z,13.30
2023-03-05T13:36:58.622Z,13.50
2023-03-05T13:39:04.486Z,13.33
2023-03-05T13:41:24.144Z,13.47
2023-03-05T13:43:27.847Z,13.90
2023-03-05T13:45:33.780Z,12.60
2023-03-05T13:47:41.493Z,12.80
2023-03-05T13:49:47.324Z,15.07
2023-03-05T13:51:52.884Z,12.60
2023-03-05T13:53:57.295Z,13.23
2023-03-05T13:56:02.644Z,14.50
2023-03-05T13:58:07.050Z,12.80
2023-03-05T14:00:27.807Z,12.07
2023-03-05T14:02:33.518Z,12.40
2023-03-05T14:04:39.107Z,13.90
2023-03-05T14:06:48.275Z,13.07
2023-03-05T14:08:53.591Z,12.33
2023-03-05T14:10:59.868Z,12.60
2023-03-05T14:13:07.559Z,12.63
2023-03-05T14:15:23.481Z,12.70
2023-03-05T14:17:39.944Z,14.40
2023-03-05T14:19:43.443Z,13.43
2023-03-05T14:21:49.210Z,13.10
2023-03-05T14:23:55.213Z,12.23
2023-03-05T14:26:19.537Z,12.00
2023-03-05T14:28:27.663Z,13.00
2023-03-05T14:30:31.854Z,11.77
2023-03-05T14:32:38.331Z,12.07
2023-03-05T14:34:43.618Z,13.83
2023-03-05T14:36:50.337Z,11.87
2023-03-05T14:38:55.055Z,11.40
2023-03-05T14:40:58.690Z,12.13
2023-03-05T14:43:04.226Z,12.57
2023-03-05T14:45:19.240Z,13.10
2023-03-05T14:47:22.949Z,11.80
2023-03-05T14:49:27.873Z,12.23
2023-03-05T14:51:32.187Z,12.13
2023-03-05T14:53:41.043Z,11.93
2023-03-05T14:55:45.328Z,11.70
2023-03-05T14:57:51.803Z,13.10
2023-03-05T14:59:55.924Z,13.77
2023-03-05T15:01:59.494Z,12.10
2023-03-05T15:04:02.846Z,12.93
2023-03-05T15:06:09.369Z,13.70
2023-03-05T15:08:18.852Z,11.10
2023-03-05T15:10:25.361Z,12.80
2023-03-05T15:12:28.942Z,12.13
2023-03-05T15:14:32.697Z,12.83
2023-03-05T15:16:36.443Z,11.07
2023-03-05T15:18:40.046Z,12.93
2023-03-05T15:20:44.617Z,10.27
2023-03-05T15:22:49.902Z,11.20
2023-03-05T15:24:53.597Z,11.57
2023-03-05T15:26:57.811Z,12.77
2023-03-05T15:29:01.591Z,12.03
2023-03-05T15:31:06.560Z,11.63
2023-03-05T15:33:12.238Z,11.60
2023-03-05T15:35:15.784Z,10.67
2023-03-05T15:37:19.329Z,11.50
2023-03-05T15:39:25.483Z,13.13
2023-03-05T15:41:28.989Z,13.17
2023-03-05T15:43:32.365Z,13.60
2023-03-05T15:45:35.861Z,11.13
2023-03-05T15:47:39.262Z,12.67
2023-03-05T15:49:42.867Z,13.47
2023-03-05T15:51:46.725Z,13.40
2023-03-05T15:53:50.303Z,13.13
2023-03-05T15:55:55.169Z,14.03
2023-03-05T15:57:58.664Z,14.80
2023-03-05T16:00:02.366Z,14.13
2023-03-05T16:02:06.438Z,13.40
2023-03-05T16:04:10.135Z,14.73
2023-03-05T16:06:16.049Z,13.33
2023-03-05T16:08:22.654Z,14.33
2023-03-05T16:10:28.412Z,13.20
2023-03-05T16:12:40.951Z,13.30
2023-03-05T16:14:44.509Z,14.20
2023-03-05T16:16:52.141Z,11.85
2023-03-05T16:18:56.346Z,12.90
2023-03-05T16:23:34.749Z,13.27
2023-03-05T16:25:39.057Z,13.00
2023-03-05T16:27:44.223Z,14.45
2023-03-05T16:29:47.996Z,14.10
2023-03-05T16:31:51.584Z,13.65
2023-03-05T16:33:55.383Z,12.95
2023-03-05T16:36:23.379Z,13.63
2023-03-05T16:38:27.265Z,13.95
2023-03-05T16:40:56.541Z,13.45
2023-03-05T16:42:56.579Z,11.82
2023-03-05T16:45:00.232Z,12.10
2023-03-05T16:47:04.792Z,13.80
2023-03-05T16:49:08.660Z,13.00
2023-03-05T16:51:13.258Z,13.18
2023-03-05T16:53:17.264Z,13.70
2023-03-05T16:55:20.851Z,14.63
2023-03-05T16:57:26.577Z,13.05
2023-03-05T16:59:31.599Z,12.63
2023-03-05T17:01:35.295Z,12.05
2023-03-05T17:03:41.624Z,11.93
2023-03-05T17:05:45.326Z,12.32
2023-03-05T17:07:48.787Z,13.80
2023-03-05T17:09:53.179Z,12.10
2023-03-05T17:11:56.877Z,11.30
2023-03-05T17:14:00.381Z,12.23
2023-03-05T17:16:06.421Z,14.27
2023-03-05T17:18:10.242Z,15.70
2023-03-05T17:20:14.538Z,16.60
2023-03-05T17:22:18.537Z,17.55
2023-03-05T17:24:22.899Z,18.85
2023-03-05T17:26:26.656Z,16.38
2023-03-05T17:28:30.094Z,16.98
2023-03-05T17:30:36.643Z,17.88
2023-03-05T17:32:41.824Z,16.73
2023-03-05T17:34:45.514Z,21.65
2023-03-05T17:36:50.619Z,22.33
2023-03-05T17:38:54.867Z,20.35
2023-03-05T17:40:58.530Z,19.33
2023-03-05T17:43:02.329Z,20.27
2023-03-05T17:45:07.175Z,19.50
2023-03-05T17:47:10.727Z,22.15
2023-03-05T17:49:15.683Z,22.45
2023-03-05T17:51:19.360Z,20.38
2023-03-05T17:53:24.111Z,21.00
2023-03-05T17:55:27.911Z,20.80
2023-03-05T17:57:31.506Z,20.15
2023-03-05T17:59:35.454Z,22.00
2023-03-05T18:01:38.988Z,17.38
2023-03-05T18:03:42.789Z,15.75
2023-03-05T18:05:48.037Z,14.73
2023-03-05T18:07:51.929Z,15.93
2023-03-05T18:09:55.682Z,16.55
2023-03-05T18:11:59.982Z,16.42
2023-03-05T18:14:03.744Z,16.48
2023-03-05T18:16:07.957Z,16.55
2023-03-05T18:18:11.592Z,16.60
2023-03-05T18:20:26.728Z,16.65
2023-03-05T18:22:31.871Z,15.90
2023-03-05T18:24:35.685Z,16.13
2023-03-05T18:26:39.553Z,16.00
2023-03-05T18:28:43.185Z,17.13
2023-03-05T18:30:49.991Z,16.30
2023-03-05T18:32:53.620Z,15.77
2023-03-05T18:34:57.109Z,16.17
2023-03-05T18:37:01.437Z,14.60
2023-03-05T18:39:06.619Z,14.50
2023-03-05T18:41:10.260Z,14.05
2023-03-05T18:43:17.449Z,14.70
2023-03-05T18:45:23.519Z,14.70
2023-03-05T18:47:27.339Z,13.95
2023-03-05T18:49:30.785Z,14.80
2023-03-05T18:51:38.379Z,13.63
2023-03-05T18:53:41.810Z,15.88
2023-03-05T18:55:47.077Z,15.50
2023-03-05T18:57:50.602Z,15.48
2023-03-05T18:59:54.298Z,16.45
2023-03-05T19:01:58.133Z,14.52
2023-03-05T19:04:01.866Z,14.98
2023-03-05T19:06:07.487Z,13.85
2023-03-05T19:08:11.362Z,13.52
2023-03-05T19:10:16.411Z,14.23
2023-03-05T19:12:22.374Z,12.68
2023-03-05T19:14:25.867Z,14.35
2023-03-05T19:16:37.219Z,13.23
2023-03-05T19:18:47.981Z,11.50
2023-03-05T19:20:56.613Z,12.52
2023-03-05T19:23:00.195Z,12.90
2023-03-05T19:25:03.916Z,13.27
2023-03-05T19:27:13.251Z,14.15
2023-03-05T19:29:20.020Z,12.18
2023-03-05T19:31:23.865Z,12.27
2023-03-05T19:33:27.602Z,12.65
2023-03-05T19:35:31.211Z,13.43
2023-03-05T19:37:34.799Z,12.93
2023-03-05T19:39:38.830Z,12.35
2023-03-05T19:41:42.237Z,12.25
2023-03-05T19:43:46.854Z,12.35
2023-03-05T19:45:52.321Z,13.23
2023-03-05T19:47:56.376Z,13.27
2023-03-05T19:49:59.768Z,10.85
2023-03-05T19:52:04.310Z,13.02
2023-03-05T19:54:08.168Z,12.55
2023-03-05T19:56:16.069Z,13.10
2023-03-05T19:58:20.481Z,12.55
2023-03-05T20:00:26.464Z,12.57
2023-03-05T20:02:32.815Z,13.10
2023-03-05T20:04:36.508Z,11.95
2023-03-05T20:06:40.032Z,11.57
2023-03-05T20:08:43.791Z,11.23
2023-03-05T20:10:47.409Z,11.20
2023-03-05T20:12:51.508Z,12.60
2023-03-05T20:14:54.910Z,11.32
2023-03-05T20:16:58.951Z,12.30
2023-03-05T20:19:04.890Z,12.02
2023-03-05T20:21:08.675Z,13.43
2023-03-05T20:23:12.082Z,12.32
2023-03-05T20:25:17.644Z,11.80
2023-03-05T20:27:21.096Z,14.05
2023-03-05T20:29:24.699Z,12.40
2023-03-05T20:31:28.659Z,11.80
2023-03-05T20:33:32.116Z,12.55
2023-03-05T20:35:37.195Z,11.90
2023-03-05T20:37:49.576Z,12.60
2023-03-05T20:39:53.019Z,11.45
2023-03-05T20:41:56.732Z,10.75
2023-03-05T20:44:00.138Z,10.88
2023-03-05T20:46:04.870Z,11.80
2023-03-05T20:48:08.974Z,11.27
2023-03-05T20:50:14.520Z,10.20
2023-03-05T20:52:19.564Z,10.60
2023-03-05T20:54:24.256Z,12.23
2023-03-05T20:56:28.494Z,10.30
2023-03-05T20:58:32.040Z,12.02
2023-03-05T21:00:36.361Z,10.60
2023-03-05T21:02:40.046Z,11.00
2023-03-05T21:04:43.489Z,11.00
2023-03-05T21:06:47.250Z,10.70
2023-03-05T21:08:52.126Z,12.15
2023-03-05T21:10:55.812Z,11.25
2023-03-05T21:13:00.899Z,10.60
2023-03-05T21:15:04.851Z,11.13
2023-03-05T21:17:08.953Z,10.90
2023-03-05T21:19:12.545Z,10.13
2023-03-05T21:21:19.395Z,10.40
2023-03-05T21:23:23.103Z,9.63
2023-03-05T21:25:29.161Z,11.13
2023-03-05T21:27:32.867Z,11.65
2023-03-05T21:29:36.479Z,10.07
2023-03-05T21:31:39.977Z,10.63
2023-03-05T21:33:43.671Z,10.77
2023-03-05T21:35:47.450Z,10.27
2023-03-05T21:37:52.677Z,9.90
2023-03-05T21:39:56.103Z,10.52
2023-03-05T21:42:00.956Z,9.45
2023-03-05T21:44:06.154Z,8.27
2023-03-05T21:48:27.147Z,9.75
2023-03-05T21:50:30.558Z,9.38
2023-03-05T21:52:34.329Z,10.63
2023-03-05T21:54:38.123Z,9.43
2023-03-05T21:56:41.657Z,9.85
2023-03-05T21:58:46.884Z,11.25
2023-03-05T22:00:50.499Z,10.45
2023-03-05T22:02:57.870Z,10.70
2023-03-05T22:05:01.386Z,10.30
2023-03-05T22:07:06.456Z,9.32
2023-03-05T22:09:10.290Z,9.15
2023-03-05T22:11:15.937Z,8.30
2023-03-05T22:13:20.704Z,9.65
2023-03-05T22:15:29.090Z,9.88
2023-03-05T22:17:32.568Z,9.85
2023-03-05T22:19:36.061Z,9.63
2023-03-05T22:21:39.657Z,9.98
2023-03-05T22:23:43.085Z,10.48
2023-03-05T22:25:46.985Z,9.38
2023-03-05T22:27:50.483Z,9.27
2023-03-05T22:29:53.748Z,10.43
2023-03-05T22:31:58.569Z,9.38
2023-03-05T22:34:02.273Z,9.02
2023-03-05T22:36:10.398Z,8.63
2023-03-05T22:38:14.777Z,9.50
2023-03-05T22:40:20.845Z,9.60
2023-03-05T22:42:24.978Z,8.30
2023-03-05T22:44:28.398Z,9.63
2023-03-05T22:46:32.041Z,10.00
2023-03-05T22:48:37.047Z,8.55
2023-03-05T22:50:41.772Z,11.13
2023-03-05T22:52:45.287Z,10.10
2023-03-05T22:54:48.863Z,9.18
2023-03-05T22:56:52.386Z,10.02
2023-03-05T22:58:55.764Z,9.75
2023-03-05T23:00:59.621Z,9.88
2023-03-05T23:03:03.218Z,9.02
2023-03-05T23:05:09.280Z,10.07
2023-03-05T23:07:13.029Z,9.05
2023-03-05T23:09:19.242Z,7.50
2023-03-05T23:11:22.745Z,9.70
2023-03-05T23:13:26.444Z,7.82
2023-03-05T23:15:31.471Z,9.05
2023-03-05T23:17:34.919Z,9.88
2023-03-05T23:19:40.090Z,8.80
2023-03-05T23:21:44.986Z,8.40
2023-03-05T23:23:48.494Z,8.05
2023-03-05T23:25:56.064Z,9.73
2023-03-05T23:28:00.160Z,7.78
2023-03-05T23:30:16.191Z,9.25
2023-03-05T23:32:19.599Z,8.13
2023-03-05T23:34:23.383Z,8.43
2023-03-05T23:36:27.409Z,8.27
2023-03-05T23:38:33.311Z,8.70
2023-03-05T23:40:38.685Z,8.38
2023-03-05T23:42:42.698Z,8.13
2023-03-05T23:44:46.326Z,8.23
2023-03-05T23:46:49.657Z,8.50
2023-03-05T23:48:53.013Z,7.32
2023-03-05T23:50:56.954Z,8.07
2023-03-05T23:53:02.108Z,8.20
2023-03-05T23:55:08.396Z,9.13
2023-03-05T23:57:11.922Z,8.55
2023-03-05T23:59:15.472Z,8.23
